createdAt,value
2022-08-31T00:00:39.710Z,4.71
2022-08-31T00:03:06.897Z,4.66
2022-08-31T00:05:33.397Z,5.03
2022-08-31T00:07:59.890Z,4.97
2022-08-31T00:10:32.889Z,4.92
2022-08-31T00:13:06.907Z,4.88
2022-08-31T00:15:35.342Z,4.89
2022-08-31T00:18:03.293Z,4.80
2022-08-31T00:20:33.103Z,5.10
2022-08-31T00:23:02.471Z,5.33
2022-08-31T00:25:29.003Z,4.95
2022-08-31T00:27:55.510Z,4.76
2022-08-31T00:30:22.092Z,4.83
2022-08-31T00:32:48.599Z,4.89
2022-08-31T00:35:17.198Z,4.97
2022-08-31T00:37:44.020Z,5.15
2022-08-31T00:40:11.192Z,5.25
2022-08-31T00:42:37.756Z,5.00
2022-08-31T00:45:06.157Z,4.94
2022-08-31T00:47:32.725Z,5.15
2022-08-31T00:50:00.666Z,4.96
2022-08-31T00:52:37.617Z,5.13
2022-08-31T00:55:19.459Z,5.03
2022-08-31T00:57:51.348Z,4.96
2022-08-31T01:00:23.162Z,4.91
2022-08-31T01:02:50.836Z,5.31
2022-08-31T01:05:18.805Z,5.19
2022-08-31T01:07:51.136Z,5.05
2022-08-31T01:10:22.173Z,5.26
2022-08-31T01:12:55.322Z,5.28
2022-08-31T01:15:23.464Z,5.16
2022-08-31T01:17:54.427Z,5.04
2022-08-31T01:20:48.531Z,5.18
2022-08-31T01:23:27.677Z,5.20
2022-08-31T01:25:57.115Z,5.10
2022-08-31T01:28:24.389Z,5.18
2022-08-31T01:31:00.689Z,5.03
2022-08-31T01:33:28.769Z,5.52
2022-08-31T01:35:56.927Z,5.15
2022-08-31T01:38:23.976Z,5.08
2022-08-31T01:40:57.648Z,4.95
2022-08-31T01:43:25.208Z,4.90
2022-08-31T01:45:52.732Z,4.78
2022-08-31T01:48:20.369Z,4.66
2022-08-31T01:50:47.085Z,4.83
2022-08-31T01:53:13.806Z,4.69
2022-08-31T01:55:41.396Z,4.52
2022-08-31T01:58:08.554Z,4.79
2022-08-31T02:00:36.175Z,4.67
2022-08-31T02:03:05.536Z,4.52
2022-08-31T02:05:32.175Z,4.76
2022-08-31T02:07:58.707Z,4.59
2022-08-31T02:10:25.615Z,4.42
2022-08-31T02:12:52.428Z,4.40
2022-08-31T02:15:19.180Z,4.17
2022-08-31T02:17:45.621Z,4.24
2022-08-31T02:20:14.181Z,4.20
2022-08-31T02:22:40.763Z,3.82
2022-08-31T02:25:08.567Z,3.95
2022-08-31T02:27:37.893Z,3.82
2022-08-31T02:30:08.674Z,4.06
2022-08-31T02:32:35.294Z,3.75
2022-08-31T02:35:02.586Z,3.68
2022-08-31T02:37:29.223Z,3.68
2022-08-31T02:39:55.817Z,3.75
2022-08-31T02:42:22.324Z,3.64
2022-08-31T02:44:48.879Z,3.26
2022-08-31T02:47:15.422Z,3.37
2022-08-31T02:49:42.008Z,3.61
2022-08-31T02:52:08.515Z,3.61
2022-08-31T02:54:35.046Z,3.54
2022-08-31T02:57:01.576Z,3.51
2022-08-31T02:59:28.129Z,3.61
2022-08-31T03:01:55.298Z,3.72
2022-08-31T03:04:21.903Z,3.45
2022-08-31T03:06:48.624Z,3.57
2022-08-31T03:09:15.642Z,3.74
2022-08-31T03:11:42.505Z,3.76
2022-08-31T03:14:09.282Z,3.67
2022-08-31T03:16:35.824Z,3.40
2022-08-31T03:19:02.589Z,3.35
2022-08-31T03:21:29.081Z,3.42
2022-08-31T03:23:55.717Z,3.38
2022-08-31T03:26:22.237Z,3.51
2022-08-31T03:28:48.731Z,3.52
2022-08-31T03:31:15.334Z,3.36
2022-08-31T03:33:41.906Z,3.42
2022-08-31T03:36:08.431Z,3.34
2022-08-31T03:38:34.977Z,3.67
2022-08-31T03:41:03.054Z,3.68
2022-08-31T03:43:29.900Z,3.64
2022-08-31T03:45:56.527Z,3.77
2022-08-31T03:48:23.297Z,3.68
2022-08-31T03:50:49.882Z,3.80
2022-08-31T03:53:22.515Z,3.56
2022-08-31T03:55:49.641Z,3.79
2022-08-31T03:58:16.219Z,3.53
2022-08-31T04:00:43.394Z,3.80
2022-08-31T04:03:10.046Z,3.66
2022-08-31T04:05:42.470Z,3.54
2022-08-31T04:08:09.040Z,3.81
2022-08-31T04:10:39.239Z,3.54
2022-08-31T04:13:05.810Z,3.53
2022-08-31T04:15:32.721Z,3.47
2022-08-31T04:17:59.247Z,3.75
2022-08-31T04:20:29.620Z,3.58
2022-08-31T04:22:56.783Z,3.72
2022-08-31T04:25:23.289Z,3.64
2022-08-31T04:27:49.798Z,3.51
2022-08-31T04:30:16.473Z,3.83
2022-08-31T04:32:42.982Z,3.90
2022-08-31T04:35:09.595Z,3.88
2022-08-31T04:37:36.147Z,3.83
2022-08-31T04:40:02.927Z,3.99
2022-08-31T04:42:30.207Z,3.94
2022-08-31T04:44:56.734Z,4.04
2022-08-31T04:47:23.270Z,4.20
2022-08-31T04:49:49.780Z,4.08
2022-08-31T04:52:16.284Z,3.98
2022-08-31T04:54:42.786Z,4.13
2022-08-31T04:57:09.306Z,4.17
2022-08-31T04:59:35.820Z,4.06
2022-08-31T05:02:02.484Z,4.08
2022-08-31T05:04:29.441Z,3.97
2022-08-31T05:06:56.410Z,4.21
2022-08-31T05:09:23.454Z,4.18
2022-08-31T05:11:52.630Z,4.27
2022-08-31T05:14:19.561Z,4.19
2022-08-31T05:16:46.070Z,4.45
2022-08-31T05:19:13.033Z,4.08
2022-08-31T05:21:42.336Z,4.24
2022-08-31T05:24:12.557Z,4.36
2022-08-31T05:26:42.720Z,4.27
2022-08-31T05:29:10.833Z,4.33
2022-08-31T05:31:37.944Z,4.52
2022-08-31T05:34:05.306Z,4.19
2022-08-31T05:36:33.260Z,4.62
2022-08-31T05:39:01.284Z,4.69
2022-08-31T05:41:30.272Z,4.10
2022-08-31T05:43:57.875Z,4.44
2022-08-31T05:46:24.456Z,4.73
2022-08-31T05:48:51.064Z,4.61
2022-08-31T05:51:19.102Z,4.96
2022-08-31T05:53:47.334Z,5.75
2022-08-31T05:56:18.138Z,5.40
2022-08-31T05:58:47.632Z,4.91
2022-08-31T06:01:29.642Z,5.11
2022-08-31T06:03:57.451Z,4.57
2022-08-31T06:06:25.334Z,4.75
2022-08-31T06:08:52.272Z,4.99
2022-08-31T06:11:22.004Z,4.95
2022-08-31T06:13:51.540Z,4.77
2022-08-31T06:16:19.370Z,5.07
2022-08-31T06:18:47.174Z,5.13
2022-08-31T06:21:13.683Z,4.80
2022-08-31T06:23:40.571Z,4.98
2022-08-31T06:26:10.307Z,5.25
2022-08-31T06:28:36.983Z,5.66
2022-08-31T06:31:03.534Z,5.26
2022-08-31T06:33:30.150Z,4.78
2022-08-31T06:35:56.720Z,4.94
2022-08-31T06:38:25.077Z,4.78
2022-08-31T06:40:51.724Z,5.20
2022-08-31T06:43:18.674Z,5.27
2022-08-31T06:45:45.574Z,5.00
2022-08-31T06:48:12.115Z,4.89
2022-08-31T06:50:38.880Z,4.83
2022-08-31T06:53:05.549Z,4.98
2022-08-31T06:55:32.112Z,5.33
2022-08-31T06:57:58.645Z,5.68
2022-08-31T07:00:25.281Z,5.61
2022-08-31T07:02:53.164Z,5.55
2022-08-31T07:05:24.917Z,5.99
2022-08-31T07:07:51.609Z,5.98
2022-08-31T07:10:18.197Z,5.66
2022-08-31T07:12:44.863Z,5.79
2022-08-31T07:15:11.534Z,5.99
2022-08-31T07:17:38.040Z,5.69
2022-08-31T07:20:04.866Z,5.61
2022-08-31T07:22:31.408Z,5.37
2022-08-31T07:24:57.994Z,5.39
2022-08-31T07:27:24.527Z,5.17
2022-08-31T07:29:51.038Z,5.40
2022-08-31T07:32:17.618Z,6.44
2022-08-31T07:34:44.556Z,4.95
2022-08-31T07:37:11.174Z,4.89
2022-08-31T07:39:38.570Z,4.66
2022-08-31T07:42:06.088Z,4.79
2022-08-31T07:44:32.663Z,5.04
2022-08-31T07:46:59.148Z,4.89
2022-08-31T07:49:25.638Z,4.80
2022-08-31T07:51:52.663Z,5.01
2022-08-31T07:54:23.674Z,5.59
2022-08-31T07:56:52.339Z,5.05
2022-08-31T07:59:21.534Z,4.94
2022-08-31T08:01:49.286Z,4.92
2022-08-31T08:04:17.422Z,4.58
2022-08-31T08:06:44.486Z,5.06
2022-08-31T08:09:27.086Z,4.78
2022-08-31T08:11:55.825Z,5.00
2022-08-31T08:14:30.343Z,5.22
2022-08-31T08:16:56.988Z,5.18
2022-08-31T08:19:23.497Z,5.12
2022-08-31T08:21:51.086Z,5.35
2022-08-31T08:24:19.197Z,5.12
2022-08-31T08:26:52.202Z,5.23
2022-08-31T08:29:21.489Z,5.05
2022-08-31T08:31:48.318Z,5.82
2022-08-31T08:34:14.956Z,5.40
2022-08-31T08:36:41.491Z,5.10
2022-08-31T08:39:10.177Z,5.78
2022-08-31T08:41:43.214Z,5.72
2022-08-31T08:44:18.083Z,5.22
2022-08-31T08:46:50.960Z,5.28
2022-08-31T08:49:24.778Z,5.35
2022-08-31T08:52:02.160Z,5.53
2022-08-31T08:54:37.914Z,5.03
2022-08-31T08:57:27.721Z,5.58
2022-08-31T08:59:59.341Z,5.44
2022-08-31T09:02:42.407Z,5.43
2022-08-31T09:05:38.950Z,5.49
2022-08-31T09:08:28.145Z,5.76
2022-08-31T09:11:25.798Z,5.61
2022-08-31T09:14:26.637Z,5.69
2022-08-31T09:17:08.146Z,5.28
2022-08-31T09:19:35.160Z,5.20
2022-08-31T09:22:01.697Z,5.11
2022-08-31T09:24:29.411Z,5.06
2022-08-31T09:26:55.885Z,5.03
2022-08-31T09:29:31.476Z,5.21
2022-08-31T09:32:06.265Z,5.41
2022-08-31T09:34:40.000Z,5.42
2022-08-31T09:37:22.058Z,5.54
2022-08-31T09:39:51.478Z,5.33
2022-08-31T09:42:26.760Z,5.42
2022-08-31T09:44:55.942Z,5.51
2022-08-31T09:47:47.329Z,5.77
2022-08-31T09:50:31.508Z,5.46
2022-08-31T09:53:11.794Z,5.62
2022-08-31T09:55:38.377Z,5.36
2022-08-31T09:58:04.984Z,5.86
2022-08-31T10:00:40.839Z,5.64
2022-08-31T10:03:10.286Z,5.31
2022-08-31T10:05:39.930Z,5.60
2022-08-31T10:08:40.969Z,5.35
2022-08-31T10:11:15.750Z,5.93
2022-08-31T10:13:50.109Z,5.89
2022-08-31T10:16:52.029Z,5.77
2022-08-31T10:19:47.337Z,6.15
2022-08-31T10:22:31.351Z,5.51
2022-08-31T10:25:07.528Z,5.38
2022-08-31T10:27:43.058Z,5.67
2022-08-31T10:30:32.893Z,5.43
2022-08-31T10:33:11.685Z,4.17
2022-08-31T10:35:54.768Z,3.79
2022-08-31T10:38:42.986Z,3.97
2022-08-31T10:41:28.644Z,3.70
2022-08-31T10:44:31.444Z,3.85
2022-08-31T10:46:58.751Z,3.88
2022-08-31T10:49:26.440Z,4.68
2022-08-31T10:52:21.021Z,3.84
2022-08-31T10:55:13.080Z,4.03
2022-08-31T10:57:51.217Z,4.33
2022-08-31T11:00:25.007Z,3.94
2022-08-31T11:03:35.266Z,4.12
2022-08-31T11:06:32.876Z,3.84
2022-08-31T11:09:25.969Z,4.41
2022-08-31T11:12:07.164Z,4.07
2022-08-31T11:14:53.593Z,4.14
2022-08-31T11:17:43.088Z,4.07
2022-08-31T11:20:29.894Z,3.91
2022-08-31T11:23:42.403Z,4.09
2022-08-31T11:26:43.020Z,3.81
2022-08-31T11:29:27.834Z,3.71
2022-08-31T11:32:08.930Z,3.70
2022-08-31T11:34:48.917Z,3.59
2022-08-31T11:37:48.932Z,3.55
2022-08-31T11:40:35.382Z,3.65
2022-08-31T11:43:03.169Z,3.61
2022-08-31T11:45:31.457Z,3.54
2022-08-31T11:47:58.937Z,3.27
2022-08-31T11:50:25.442Z,3.39
2022-08-31T11:52:53.667Z,3.38
2022-08-31T11:55:27.410Z,3.57
2022-08-31T11:57:59.825Z,3.55
2022-08-31T12:00:41.448Z,3.67
2022-08-31T12:03:08.088Z,3.57
2022-08-31T12:05:47.798Z,3.44
2022-08-31T12:08:14.861Z,3.15
2022-08-31T12:10:55.925Z,3.53
2022-08-31T12:13:33.079Z,3.28
2022-08-31T12:16:32.902Z,2.88
2022-08-31T12:19:26.942Z,3.06
2022-08-31T12:22:08.200Z,3.12
2022-08-31T12:25:04.343Z,3.13
2022-08-31T12:27:57.357Z,3.20
2022-08-31T12:30:26.615Z,3.02
2022-08-31T12:33:10.289Z,3.01
2022-08-31T12:35:37.564Z,3.10
2022-08-31T12:38:10.219Z,3.27
2022-08-31T12:40:50.660Z,3.18
2022-08-31T12:43:46.578Z,3.17
2022-08-31T12:46:25.395Z,3.15
2022-08-31T12:48:54.765Z,3.19
2022-08-31T12:51:38.030Z,3.20
2022-08-31T12:54:41.377Z,3.12
2022-08-31T12:57:10.814Z,3.28
2022-08-31T13:00:00.542Z,3.39
2022-08-31T13:02:33.204Z,3.35
2022-08-31T13:05:02.437Z,3.52
2022-08-31T13:07:33.092Z,3.63
2022-08-31T13:10:28.563Z,3.52
2022-08-31T13:13:05.470Z,3.77
2022-08-31T13:15:40.113Z,3.70
2022-08-31T13:18:12.826Z,3.67
2022-08-31T13:20:40.992Z,3.73
2022-08-31T13:23:09.610Z,3.98
2022-08-31T13:25:36.836Z,3.96
2022-08-31T13:28:03.468Z,3.89
2022-08-31T13:30:30.372Z,4.02
2022-08-31T13:32:57.146Z,3.98
2022-08-31T13:35:27.880Z,3.88
2022-08-31T13:38:05.105Z,4.05
2022-08-31T13:40:39.836Z,4.21
2022-08-31T13:43:09.713Z,4.37
2022-08-31T13:45:52.668Z,3.91
2022-08-31T13:48:35.415Z,3.84
2022-08-31T13:51:06.820Z,3.61
2022-08-31T13:53:38.578Z,4.18
2022-08-31T13:56:33.062Z,4.09
2022-08-31T13:59:28.227Z,4.19
2022-08-31T14:02:36.527Z,3.28
2022-08-31T14:05:05.996Z,3.36
2022-08-31T14:07:48.808Z,3.28
2022-08-31T14:10:27.841Z,3.30
2022-08-31T14:13:01.714Z,3.25
2022-08-31T14:15:40.658Z,3.30
2022-08-31T14:18:24.084Z,3.13
2022-08-31T14:21:19.953Z,3.06
2022-08-31T14:23:53.324Z,2.83
2022-08-31T14:26:22.806Z,3.10
2022-08-31T14:28:52.912Z,2.97
2022-08-31T14:31:27.899Z,3.04
2022-08-31T14:34:09.475Z,2.90
2022-08-31T14:36:39.965Z,3.08
2022-08-31T14:39:07.241Z,2.88
2022-08-31T14:41:33.795Z,2.78
2022-08-31T14:44:05.028Z,2.66
2022-08-31T14:46:31.630Z,2.68
2022-08-31T14:48:58.124Z,2.58
2022-08-31T14:51:25.559Z,2.59
2022-08-31T14:53:53.544Z,2.77
2022-08-31T14:56:20.061Z,2.37
2022-08-31T14:58:47.131Z,2.51
2022-08-31T15:01:13.732Z,2.36
2022-08-31T15:03:40.355Z,2.15
2022-08-31T15:06:09.898Z,2.36
2022-08-31T15:08:38.405Z,2.48
2022-08-31T15:11:05.655Z,2.52
2022-08-31T15:13:32.389Z,2.46
2022-08-31T15:16:03.590Z,2.63
2022-08-31T15:18:32.652Z,2.50
2022-08-31T15:21:01.485Z,2.50
2022-08-31T15:23:29.373Z,2.43
2022-08-31T15:26:08.042Z,2.50
2022-08-31T15:28:38.203Z,2.50
2022-08-31T15:31:07.097Z,2.48
2022-08-31T15:33:33.619Z,2.50
2022-08-31T15:36:07.667Z,2.34
2022-08-31T15:38:35.993Z,2.39
2022-08-31T15:41:02.778Z,2.27
2022-08-31T15:43:29.277Z,2.23
2022-08-31T15:45:55.884Z,2.33
2022-08-31T15:48:22.448Z,2.11
2022-08-31T15:50:53.537Z,2.32
2022-08-31T15:53:21.144Z,2.37
2022-08-31T15:55:47.660Z,2.36
2022-08-31T15:58:14.326Z,2.19
2022-08-31T16:00:40.845Z,2.55
2022-08-31T16:03:08.188Z,2.55
2022-08-31T16:05:34.995Z,2.27
2022-08-31T16:08:01.709Z,2.77
2022-08-31T16:10:28.312Z,2.30
2022-08-31T16:12:55.012Z,2.35
2022-08-31T16:15:24.700Z,2.44
2022-08-31T16:17:51.905Z,3.33
2022-08-31T16:20:18.546Z,2.50
2022-08-31T16:22:45.168Z,2.43
2022-08-31T16:25:13.123Z,2.39
2022-08-31T16:27:39.903Z,2.88
2022-08-31T16:30:08.877Z,2.82
2022-08-31T16:32:35.451Z,2.60
2022-08-31T16:35:02.000Z,2.44
2022-08-31T16:37:28.539Z,2.41
2022-08-31T16:39:55.126Z,2.42
2022-08-31T16:42:21.623Z,2.50
2022-08-31T16:44:48.360Z,2.65
2022-08-31T16:47:17.514Z,2.36
2022-08-31T16:49:45.192Z,2.64
2022-08-31T16:52:18.515Z,2.52
2022-08-31T16:54:48.991Z,2.79
2022-08-31T16:57:19.659Z,2.70
2022-08-31T16:59:47.637Z,2.62
2022-08-31T17:02:15.975Z,2.67
2022-08-31T17:04:53.296Z,2.70
2022-08-31T17:07:23.278Z,2.88
2022-08-31T17:09:50.171Z,3.13
2022-08-31T17:12:18.133Z,2.91
2022-08-31T17:14:49.915Z,2.99
2022-08-31T17:17:20.692Z,2.86
2022-08-31T17:19:47.288Z,2.93
2022-08-31T17:22:23.276Z,2.99
2022-08-31T17:24:52.026Z,2.98
2022-08-31T17:27:20.721Z,2.80
2022-08-31T17:29:49.782Z,2.89
2022-08-31T17:32:18.910Z,2.69
2022-08-31T17:34:46.294Z,2.73
2022-08-31T17:37:14.372Z,2.78
2022-08-31T17:39:43.202Z,3.06
2022-08-31T17:42:11.223Z,2.92
2022-08-31T17:44:37.808Z,3.08
2022-08-31T17:47:05.246Z,3.06
2022-08-31T17:49:37.658Z,3.20
2022-08-31T17:52:06.323Z,3.30
2022-08-31T17:54:32.899Z,3.06
2022-08-31T17:57:01.750Z,3.44
2022-08-31T17:59:34.669Z,3.52
2022-08-31T18:02:08.288Z,3.56
2022-08-31T18:04:34.998Z,3.52
2022-08-31T18:07:02.671Z,3.52
2022-08-31T18:09:33.425Z,3.61
2022-08-31T18:12:00.916Z,3.71
2022-08-31T18:14:30.785Z,3.60
2022-08-31T18:17:07.155Z,3.34
2022-08-31T18:19:34.535Z,3.50
2022-08-31T18:22:02.413Z,3.74
2022-08-31T18:24:32.068Z,3.63
2022-08-31T18:26:58.771Z,3.78
2022-08-31T18:29:25.373Z,3.55
2022-08-31T18:31:52.590Z,3.76
2022-08-31T18:34:22.616Z,3.77
2022-08-31T18:36:53.761Z,4.00
2022-08-31T18:39:47.814Z,4.06
2022-08-31T18:42:09.557Z,4.16
2022-08-31T18:44:37.297Z,4.30
2022-08-31T18:47:08.150Z,4.05
2022-08-31T18:49:37.719Z,4.04
2022-08-31T18:52:10.555Z,4.03
2022-08-31T18:54:42.182Z,4.08
2022-08-31T18:57:09.437Z,4.14
2022-08-31T18:59:40.060Z,4.27
2022-08-31T19:02:07.044Z,4.20
2022-08-31T19:04:38.228Z,3.98
2022-08-31T19:07:06.311Z,4.20
2022-08-31T19:09:33.340Z,4.57
2022-08-31T19:11:59.860Z,4.41
2022-08-31T19:14:36.953Z,4.35
2022-08-31T19:17:07.533Z,4.77
2022-08-31T19:19:34.474Z,4.66
2022-08-31T19:22:03.920Z,4.82
2022-08-31T19:24:30.424Z,4.72
2022-08-31T19:27:03.155Z,4.42
2022-08-31T19:29:31.024Z,4.84
2022-08-31T19:32:02.128Z,4.71
2022-08-31T19:34:34.704Z,4.75
2022-08-31T19:37:07.049Z,4.70
2022-08-31T19:39:38.943Z,4.85
2022-08-31T19:42:07.535Z,4.98
2022-08-31T19:47:25.832Z,5.22
2022-08-31T19:49:52.861Z,5.27
2022-08-31T19:52:20.250Z,5.01
2022-08-31T19:54:47.366Z,5.21
2022-08-31T19:57:13.884Z,5.09
2022-08-31T19:59:40.670Z,5.41
2022-08-31T20:02:07.324Z,5.70
2022-08-31T20:04:35.454Z,5.38
2022-08-31T20:07:03.303Z,5.37
2022-08-31T20:09:32.839Z,5.59
2022-08-31T20:11:59.383Z,5.17
2022-08-31T20:14:25.940Z,5.41
2022-08-31T20:16:52.873Z,5.53
2022-08-31T20:19:21.782Z,5.68
2022-08-31T20:21:48.204Z,5.48
2022-08-31T20:24:14.724Z,5.11
2022-08-31T20:26:47.418Z,5.38
2022-08-31T20:29:20.078Z,5.45
2022-08-31T20:31:50.028Z,5.36
2022-08-31T20:34:19.593Z,5.26
2022-08-31T20:36:46.763Z,5.25
2022-08-31T20:39:15.796Z,5.41
2022-08-31T20:41:45.732Z,5.42
2022-08-31T20:44:19.234Z,5.22
2022-08-31T20:46:51.614Z,5.56
2022-08-31T20:49:18.128Z,5.48
2022-08-31T20:51:45.304Z,5.40
2022-08-31T20:54:12.306Z,5.31
2022-08-31T20:56:38.926Z,5.44
2022-08-31T20:59:06.571Z,5.29
2022-08-31T21:01:33.145Z,5.34
2022-08-31T21:03:59.816Z,5.11
2022-08-31T21:06:26.819Z,5.19
2022-08-31T21:08:56.645Z,5.32
2022-08-31T21:11:24.027Z,5.04
2022-08-31T21:13:50.979Z,4.90
2022-08-31T21:16:19.316Z,5.18
2022-08-31T21:18:46.615Z,5.63
2022-08-31T21:21:14.360Z,5.19
2022-08-31T21:23:41.118Z,4.90
2022-08-31T21:26:08.094Z,5.22
2022-08-31T21:28:35.529Z,5.00
2022-08-31T21:31:15.540Z,5.36
2022-08-31T21:33:45.907Z,5.46
2022-08-31T21:36:15.142Z,5.34
2022-08-31T21:38:43.291Z,5.22
2022-08-31T21:41:12.493Z,5.29
2022-08-31T21:43:39.410Z,5.69
2022-08-31T21:46:21.882Z,5.52
2022-08-31T21:48:50.653Z,5.31
2022-08-31T21:51:24.683Z,5.47
2022-08-31T21:53:54.585Z,5.61
2022-08-31T21:56:25.318Z,5.72
2022-08-31T21:58:52.766Z,5.59
2022-08-31T22:01:20.439Z,6.10
2022-08-31T22:03:49.673Z,5.97
2022-08-31T22:06:19.932Z,5.59
2022-08-31T22:08:51.593Z,5.84
2022-08-31T22:11:21.757Z,5.82
2022-08-31T22:13:50.511Z,5.82
2022-08-31T22:16:19.767Z,5.89
2022-08-31T22:19:02.372Z,5.71
2022-08-31T22:21:32.513Z,5.30
2022-08-31T22:24:07.361Z,5.45
2022-08-31T22:26:38.873Z,5.77
2022-08-31T22:29:07.534Z,5.37
2022-08-31T22:31:35.863Z,5.08
2022-08-31T22:34:03.250Z,5.15
2022-08-31T22:36:31.384Z,5.26
2022-08-31T22:39:04.719Z,5.26
2022-08-31T22:41:33.192Z,5.25
2022-08-31T22:44:00.979Z,5.69
2022-08-31T22:46:27.918Z,5.74
2022-08-31T22:48:54.466Z,5.58
2022-08-31T22:51:20.976Z,5.66
2022-08-31T22:53:47.587Z,5.63
2022-08-31T22:56:22.697Z,5.58
2022-08-31T22:58:49.226Z,5.64
2022-08-31T23:01:22.314Z,5.42
2022-08-31T23:03:51.236Z,5.78
2022-08-31T23:06:19.023Z,5.45
2022-08-31T23:08:47.753Z,5.77
2022-08-31T23:11:14.629Z,5.90
2022-08-31T23:13:41.883Z,5.74
2022-08-31T23:16:08.520Z,5.49
2022-08-31T23:18:35.111Z,5.75
2022-08-31T23:21:01.690Z,5.79
2022-08-31T23:23:28.183Z,5.69
2022-08-31T23:25:54.774Z,5.50
2022-08-31T23:28:21.284Z,5.96
2022-08-31T23:30:47.845Z,5.65
2022-08-31T23:33:14.472Z,5.77
2022-08-31T23:35:40.968Z,5.95
2022-08-31T23:38:07.464Z,6.43
2022-08-31T23:40:34.069Z,5.91
2022-08-31T23:43:00.734Z,5.76
2022-08-31T23:45:27.276Z,6.15
2022-08-31T23:47:53.751Z,5.90
2022-08-31T23:50:20.286Z,5.66
2022-08-31T23:52:46.811Z,6.37
2022-08-31T23:55:13.440Z,6.31
2022-08-31T23:57:40.118Z,6.25
